Time;durP1;ratioP1;P1;durP2;ratioP2;P2;SDS_P1;SDS_P2;PMS_P1;PMS_P2;Temp;Humidity;BMP_temperature;BMP_pressure;BME280_temperature;BME280_humidity;BME280_pressure;Samples;Min_cycle;Max_cycle;Signal;HPM_P1;HPM_P2
2022/08/13 00:00:11;;;;;;;1.63;1.52;;;25.30;53.30;;;;;;5052788;28;20178;-56
2022/08/13 00:02:43;;;;;;;2.00;1.50;;;25.30;53.40;;;;;;5053181;28;20179;-58
2022/08/13 00:05:09;;;;;;;2.00;1.90;;;25.30;53.30;;;;;;5052758;28;20183;-56
2022/08/13 00:07:35;;;;;;;2.13;2.00;;;25.30;53.30;;;;;;5052655;28;20206;-58
2022/08/13 00:10:01;;;;;;;1.40;1.30;;;25.30;53.30;;;;;;5052943;28;20175;-58
2022/08/13 00:15:25;;;;;;;1.50;1.40;;;25.30;53.20;;;;;;5053146;28;20714;-57
2022/08/13 00:17:50;;;;;;;2.03;1.70;;;25.30;53.30;;;;;;5052997;28;20242;-57
2022/08/13 00:20:17;;;;;;;1.70;1.60;;;25.30;53.20;;;;;;5051830;28;20194;-58
2022/08/13 00:22:43;;;;;;;2.20;2.00;;;25.30;53.30;;;;;;5053009;28;20179;-56
2022/08/13 00:25:09;;;;;;;1.60;1.50;;;25.30;53.30;;;;;;5052402;28;20549;-55
2022/08/13 00:27:34;;;;;;;2.75;1.58;;;25.30;53.20;;;;;;5052434;28;20740;-53
2022/08/13 00:30:00;;;;;;;1.85;1.75;;;25.30;53.20;;;;;;5052604;28;20179;-56
2022/08/13 00:32:29;;;;;;;1.50;1.40;;;25.30;53.20;;;;;;5051892;28;20203;-57
2022/08/13 00:34:58;;;;;;;1.98;1.70;;;25.30;53.20;;;;;;5052256;28;20179;-54
2022/08/13 00:37:27;;;;;;;1.70;1.60;;;25.30;53.20;;;;;;5052714;28;20179;-55
2022/08/13 00:39:56;;;;;;;1.90;1.80;;;25.30;53.20;;;;;;5051926;28;20213;-57
2022/08/13 00:42:23;;;;;;;1.65;1.55;;;25.20;53.20;;;;;;5052351;28;20163;-57
2022/08/13 00:44:49;;;;;;;2.08;1.80;;;25.20;53.10;;;;;;5052325;28;20197;-57
2022/08/13 00:50:00;;;;;;;1.75;1.65;;;25.30;53.20;;;;;;5052065;28;20232;-55
2022/08/13 00:52:30;;;;;;;1.60;1.50;;;25.20;53.10;;;;;;5052525;28;20254;-57
2022/08/13 00:55:06;;;;;;;1.95;1.67;;;25.20;53.10;;;;;;5051985;28;20186;-55
2022/08/13 00:57:31;;;;;;;1.90;1.80;;;25.20;53.20;;;;;;5056093;28;20179;-52
2022/08/13 00:59:57;;;;;;;1.70;1.60;;;25.20;53.10;;;;;;5056350;28;20193;-55
2022/08/13 01:02:24;;;;;;;1.67;1.58;;;25.20;53.20;;;;;;5055803;28;20178;-54
2022/08/13 01:04:49;;;;;;;1.88;1.77;;;25.20;53.10;;;;;;5056198;28;20629;-58
2022/08/13 01:07:15;;;;;;;1.65;1.55;;;25.20;53.10;;;;;;5037776;28;20217;-57
2022/08/13 01:09:40;;;;;;;1.70;1.60;;;25.20;53.10;;;;;;5055919;28;20175;-58
2022/08/13 01:12:09;;;;;;;2.13;1.75;;;25.20;53.10;;;;;;5056026;28;20167;-56
2022/08/13 01:14:35;;;;;;;2.28;1.38;;;25.20;53.10;;;;;;5038400;28;20204;-55
2022/08/13 01:17:02;;;;;;;1.80;1.70;;;25.20;53.10;;;;;;5038031;28;20237;-58
2022/08/13 01:19:29;;;;;;;1.83;1.73;;;25.20;53.10;;;;;;5056151;28;20175;-56
2022/08/13 01:21:57;;;;;;;2.38;1.80;;;25.20;53.10;;;;;;5055394;28;20179;-56
2022/08/13 01:24:23;;;;;;;1.50;1.40;;;25.20;53.10;;;;;;5038287;28;20639;-56
2022/08/13 01:26:48;;;;;;;1.90;1.80;;;25.20;53.10;;;;;;5055635;28;20174;-54
2022/08/13 01:29:16;;;;;;;1.77;1.67;;;25.20;53.10;;;;;;5037813;28;20171;-55
2022/08/13 01:31:42;;;;;;;1.67;1.58;;;25.20;53.20;;;;;;5055773;28;20258;-55
2022/08/13 01:34:07;;;;;;;1.83;1.73;;;25.20;53.10;;;;;;5055824;28;20586;-55
2022/08/13 01:36:34;;;;;;;1.63;1.52;;;25.20;53.10;;;;;;5037503;28;20588;-57
2022/08/13 01:39:04;;;;;;;1.70;1.60;;;25.20;53.10;;;;;;5055224;28;20179;-57
2022/08/13 01:41:29;;;;;;;1.73;1.63;;;25.20;53.10;;;;;;5055888;28;20187;-58
2022/08/13 01:44:00;;;;;;;1.73;1.63;;;25.10;53.00;;;;;;5055019;28;20572;-58
2022/08/13 01:46:26;;;;;;;1.80;1.70;;;25.20;53.10;;;;;;5038515;28;20175;-58
2022/08/13 01:51:36;;;;;;;2.20;1.52;;;25.10;53.00;;;;;;5054830;28;20222;-58
2022/08/13 01:54:01;;;;;;;1.83;1.50;;;25.10;53.00;;;;;;5055443;28;20187;-56
2022/08/13 01:56:30;;;;;;;1.55;1.45;;;25.20;53.70;;;;;;5055002;28;20182;-55
2022/08/13 01:58:58;;;;;;;1.92;1.83;;;25.10;53.00;;;;;;5055090;28;20195;-54
2022/08/13 02:01:27;;;;;;;1.60;1.50;;;25.10;53.00;;;;;;5055401;28;20240;-56
2022/08/13 02:03:53;;;;;;;2.15;1.98;;;25.10;53.00;;;;;;5054660;28;20198;-57
2022/08/13 02:06:26;;;;;;;1.80;1.70;;;25.10;53.00;;;;;;5054877;28;20175;-57
2022/08/13 02:08:55;;;;;;;2.67;1.50;;;25.10;53.10;;;;;;5053751;28;20221;-57
2022/08/13 02:11:21;;;;;;;1.70;1.60;;;25.10;53.10;;;;;;5054730;28;20232;-56
2022/08/13 02:13:48;;;;;;;2.17;1.67;;;25.10;53.00;;;;;;5054680;28;20262;-56
2022/08/13 02:16:14;;;;;;;1.67;1.58;;;25.10;53.00;;;;;;5054937;28;20182;-57
2022/08/13 02:18:39;;;;;;;2.80;1.75;;;25.00;53.00;;;;;;5054564;28;20179;-57
2022/08/13 02:21:05;;;;;;;1.95;1.45;;;25.10;53.10;;;;;;5036779;28;20221;-58
2022/08/13 02:23:32;;;;;;;1.58;1.48;;;25.00;53.00;;;;;;5055081;28;20179;-57
2022/08/13 02:25:59;;;;;;;1.88;1.77;;;25.10;53.00;;;;;;5054199;28;20260;-55
2022/08/13 02:28:25;;;;;;;1.65;1.55;;;25.10;53.00;;;;;;5054532;28;20225;-56
2022/08/13 02:30:53;;;;;;;1.83;1.73;;;25.00;53.00;;;;;;5054720;28;20536;-55
2022/08/13 02:33:20;;;;;;;2.17;1.98;;;25.00;53.00;;;;;;5053778;28;20225;-56
2022/08/13 02:35:45;;;;;;;2.25;1.38;;;25.10;53.00;;;;;;5054775;28;20175;-58
2022/08/13 02:38:11;;;;;;;1.50;1.40;;;25.00;53.00;;;;;;5054635;28;20179;-56
2022/08/13 02:43:25;;;;;;;1.92;1.73;;;25.00;52.90;;;;;;5054494;28;20194;-57
2022/08/13 02:45:53;;;;;;;1.85;1.50;;;25.10;53.00;;;;;;5053692;28;20621;-58
2022/08/13 02:48:19;;;;;;;2.17;1.98;;;25.00;52.90;;;;;;5054266;28;20222;-57
2022/08/13 02:50:45;;;;;;;1.50;1.40;;;25.00;52.90;;;;;;5054381;28;20179;-56
2022/08/13 02:53:13;;;;;;;1.50;1.40;;;25.00;52.90;;;;;;5053892;28;20183;-56
2022/08/13 02:55:39;;;;;;;1.85;1.75;;;25.00;52.90;;;;;;5054019;28;20187;-55
2022/08/13 02:58:05;;;;;;;1.65;1.55;;;25.00;52.90;;;;;;5054131;28;20179;-55
2022/08/13 03:00:31;;;;;;;2.13;1.75;;;25.00;52.90;;;;;;5053573;28;20537;-56
2022/08/13 03:02:57;;;;;;;1.55;1.23;;;25.00;52.90;;;;;;5053567;28;20171;-57
2022/08/13 03:05:23;;;;;;;1.40;1.30;;;25.00;52.90;;;;;;5054041;28;20645;-57
2022/08/13 03:07:49;;;;;;;1.50;1.40;;;25.00;52.80;;;;;;5053335;28;20203;-58
2022/08/13 03:10:16;;;;;;;1.55;1.45;;;25.00;52.80;;;;;;5053894;28;20217;-57
2022/08/13 03:12:48;;;;;;;1.60;1.33;;;25.00;52.80;;;;;;5054119;28;20232;-58
2022/08/13 03:15:14;;;;;;;1.75;1.40;;;25.00;52.80;;;;;;5053852;28;20538;-56
2022/08/13 03:17:40;;;;;;;1.52;1.42;;;25.00;52.80;;;;;;5053477;28;20727;-55
2022/08/13 03:20:09;;;;;;;1.50;1.40;;;25.00;52.80;;;;;;5053232;28;20237;-58
2022/08/13 03:22:57;;;;;;;1.42;1.33;;;25.00;52.80;;;;;;5053030;28;20179;-56
2022/08/13 03:25:25;;;;;;;1.40;1.30;;;25.00;52.80;;;;;;5053603;28;20178;-52
2022/08/13 03:27:51;;;;;;;1.40;1.30;;;25.00;52.80;;;;;;5053083;28;20214;-55
2022/08/13 03:30:17;;;;;;;1.80;1.40;;;25.00;52.80;;;;;;5053427;28;20171;-56
2022/08/13 03:32:44;;;;;;;2.08;1.95;;;25.00;52.80;;;;;;5053671;28;20182;-56
2022/08/13 03:35:11;;;;;;;2.60;1.70;;;25.00;52.80;;;;;;5052968;28;20194;-57
2022/08/13 03:37:38;;;;;;;1.67;1.58;;;25.00;52.80;;;;;;5052981;28;20630;-58
2022/08/13 03:40:04;;;;;;;1.70;1.60;;;25.00;52.80;;;;;;5035540;28;20742;-58
2022/08/13 03:42:30;;;;;;;1.80;1.70;;;24.90;52.80;;;;;;5052858;28;20171;-58
2022/08/13 03:44:56;;;;;;;4.40;1.65;;;24.90;52.70;;;;;;5053062;28;20186;-57
2022/08/13 03:47:22;;;;;;;1.65;1.55;;;24.90;52.80;;;;;;5053206;28;20210;-57
2022/08/13 03:49:48;;;;;;;1.88;1.60;;;24.90;52.80;;;;;;5052611;28;20167;-57
2022/08/13 03:52:13;;;;;;;1.65;1.55;;;24.90;52.70;;;;;;5052966;28;20171;-57
2022/08/13 03:54:40;;;;;;;1.73;1.45;;;24.90;52.70;;;;;;5053433;28;20177;-53
2022/08/13 03:57:06;;;;;;;1.40;1.30;;;24.90;52.70;;;;;;5052625;28;20194;-56
2022/08/13 03:59:31;;;;;;;1.40;1.30;;;24.90;52.70;;;;;;5052876;28;20175;-58
2022/08/13 04:02:01;;;;;;;1.70;1.45;;;24.90;52.70;;;;;;5053121;28;20163;-52
2022/08/13 04:04:26;;;;;;;1.48;1.40;;;24.90;52.70;;;;;;5052037;28;20175;-58
2022/08/13 04:06:52;;;;;;;1.70;1.60;;;24.90;52.80;;;;;;5052442;28;20175;-55
2022/08/13 04:09:18;;;;;;;1.50;1.40;;;24.90;52.70;;;;;;5052588;28;20573;-72
2022/08/13 04:11:43;;;;;;;1.42;1.30;;;24.90;52.70;;;;;;5052455;28;20221;-72
2022/08/13 04:14:09;;;;;;;2.97;1.30;;;24.90;52.60;;;;;;5053103;28;20186;-71
2022/08/13 04:16:34;;;;;;;1.70;1.60;;;24.90;52.60;;;;;;5034954;28;20227;-71
2022/08/13 04:19:02;;;;;;;1.67;1.52;;;24.90;52.60;;;;;;5051736;28;20179;-73
2022/08/13 04:21:31;;;;;;;1.80;1.67;;;24.90;52.80;;;;;;5052691;28;20175;-72
2022/08/13 04:23:57;;;;;;;1.75;1.40;;;24.90;52.70;;;;;;5052628;28;20198;-72
2022/08/13 04:26:23;;;;;;;2.33;1.58;;;24.90;52.70;;;;;;5052097;28;20199;-71
2022/08/13 04:28:50;;;;;;;2.50;1.70;;;24.90;52.80;;;;;;5052456;28;20237;-72
2022/08/13 04:31:16;;;;;;;2.95;1.30;;;24.90;52.70;;;;;;5051271;28;20171;-72
2022/08/13 04:33:42;;;;;;;3.63;1.60;;;24.90;52.70;;;;;;5052495;28;20216;-73
2022/08/13 04:36:08;;;;;;;1.70;1.30;;;24.80;51.90;;;;;;5052314;28;20175;-73
2022/08/13 04:38:34;;;;;;;2.13;1.50;;;24.80;51.50;;;;;;5052234;28;20525;-74
2022/08/13 04:40:59;;;;;;;1.63;1.35;;;24.80;51.60;;;;;;5052292;28;20182;-74
2022/08/13 04:43:25;;;;;;;3.83;2.05;;;24.80;51.70;;;;;;5052153;28;20219;-74
2022/08/13 04:45:50;;;;;;;6.30;2.53;;;24.80;49.20;;;;;;5052102;28;20633;-75
2022/08/13 04:48:16;;;;;;;9.63;2.10;;;24.60;47.00;;;;;;5052040;28;20222;-69
2022/08/13 04:50:43;;;;;;;7.15;2.17;;;24.50;45.50;;;;;;5052544;28;20183;-73
2022/08/13 04:53:28;;;;;;;9.70;1.95;;;24.30;44.60;;;;;;5052215;28;20175;-74
2022/08/13 04:55:55;;;;;;;6.80;1.95;;;24.20;44.80;;;;;;5052267;28;20198;-73
2022/08/13 04:58:21;;;;;;;6.53;1.60;;;24.20;44.50;;;;;;5052527;28;20183;-72
2022/08/13 05:00:47;;;;;;;3.13;1.65;;;24.10;44.10;;;;;;5051549;28;20179;-74
2022/08/13 05:03:15;;;;;;;2.97;1.67;;;24.10;44.10;;;;;;5052343;28;20182;-72
2022/08/13 05:05:41;;;;;;;4.45;1.85;;;24.00;44.00;;;;;;5052304;28;20655;-74
2022/08/13 05:08:07;;;;;;;3.10;1.77;;;24.00;43.90;;;;;;5051577;28;20222;-72
2022/08/13 05:10:37;;;;;;;1.70;1.50;;;24.00;44.00;;;;;;5052281;28;20172;-71
2022/08/13 05:13:03;;;;;;;2.00;1.80;;;24.00;43.90;;;;;;5052087;28;20545;-76
2022/08/13 05:15:29;;;;;;;3.47;1.52;;;24.00;44.30;;;;;;5051456;28;20608;-74
2022/08/13 05:17:54;;;;;;;2.28;1.65;;;24.00;44.10;;;;;;5051844;28;20245;-77
2022/08/13 05:20:20;;;;;;;1.98;1.40;;;24.00;43.80;;;;;;5051774;28;20544;-75
2022/08/13 05:22:46;;;;;;;1.88;1.77;;;24.00;43.80;;;;;;5051967;28;20183;-75
2022/08/13 05:25:14;;;;;;;2.60;1.50;;;24.00;43.50;;;;;;5052484;28;20178;-78
2022/08/13 05:27:41;;;;;;;3.17;1.60;;;24.00;43.80;;;;;;5051854;28;20272;-74
2022/08/13 05:30:07;;;;;;;2.15;1.60;;;24.00;43.60;;;;;;5051654;28;20629;-73
2022/08/13 05:32:38;;;;;;;3.95;1.48;;;24.00;43.50;;;;;;5051892;28;20182;-72
2022/08/13 05:35:11;;;;;;;1.95;1.52;;;24.00;43.60;;;;;;5051634;28;20262;-73
2022/08/13 05:37:36;;;;;;;2.00;1.60;;;24.00;43.30;;;;;;5051928;28;20187;-72
2022/08/13 05:40:02;;;;;;;1.90;1.50;;;24.00;43.20;;;;;;5051483;28;20190;-74
2022/08/13 05:42:28;;;;;;;4.20;1.63;;;24.00;43.30;;;;;;5053231;28;20186;-72
2022/08/13 05:44:56;;;;;;;3.88;1.50;;;24.00;43.30;;;;;;5055337;28;20502;-75
2022/08/13 05:47:22;;;;;;;3.25;1.30;;;24.10;43.30;;;;;;5055453;28;20233;-72
2022/08/13 05:49:48;;;;;;;3.72;1.55;;;24.00;43.10;;;;;;5054497;28;20633;-78
2022/08/13 05:52:13;;;;;;;1.65;1.55;;;24.10;43.10;;;;;;5055351;28;20659;-75
2022/08/13 05:54:39;;;;;;;4.30;1.80;;;24.10;43.30;;;;;;5055223;28;20175;-75
2022/08/13 05:57:05;;;;;;;1.73;1.63;;;24.00;42.80;;;;;;5054567;28;20179;-76
2022/08/13 06:05:02;;;;;;;3.88;1.98;;;24.10;43.00;;;;;;5039753;28;20182;-73
2022/08/13 06:07:27;;;;;;;2.80;1.50;;;24.10;42.90;;;;;;5054834;28;20211;-73
2022/08/13 06:09:53;;;;;;;1.85;1.73;;;24.10;43.10;;;;;;5036250;28;20177;-73
2022/08/13 06:12:18;;;;;;;2.35;2.15;;;24.10;43.00;;;;;;5055037;28;20182;-69
2022/08/13 06:14:45;;;;;;;3.08;1.67;;;24.10;43.20;;;;;;5054840;28;20536;-69
2022/08/13 06:17:12;;;;;;;4.30;1.90;;;24.20;42.90;;;;;;5036766;28;20227;-76
2022/08/13 06:19:38;;;;;;;3.83;2.00;;;24.20;43.00;;;;;;5037235;28;20183;-74
2022/08/13 06:22:04;;;;;;;4.32;1.67;;;24.20;43.00;;;;;;5054661;28;20175;-75
2022/08/13 06:24:32;;;;;;;4.78;2.15;;;24.20;43.00;;;;;;5054330;28;20194;-73
2022/08/13 06:27:04;;;;;;;5.20;2.25;;;24.20;42.90;;;;;;5054277;28;20254;-73
2022/08/13 06:29:30;;;;;;;3.03;1.48;;;24.20;43.00;;;;;;5054479;28;20655;-72
2022/08/13 06:31:55;;;;;;;1.75;1.63;;;24.20;43.30;;;;;;5035212;28;20170;-73
2022/08/13 06:34:22;;;;;;;2.85;1.90;;;24.30;43.50;;;;;;5054230;28;20273;-73
2022/08/13 06:36:48;;;;;;;3.92;2.10;;;24.40;43.70;;;;;;5054205;28;20167;-75
2022/08/13 06:39:13;;;;;;;2.67;1.60;;;24.40;44.10;;;;;;5054191;28;20175;-75
2022/08/13 06:41:40;;;;;;;3.65;1.50;;;24.50;44.50;;;;;;5036575;28;20180;-75
2022/08/13 06:44:05;;;;;;;3.35;1.60;;;24.50;44.50;;;;;;5036835;28;20250;-74
2022/08/13 06:46:31;;;;;;;3.13;1.42;;;24.50;44.50;;;;;;5035593;28;20714;-72
2022/08/13 06:49:00;;;;;;;3.22;1.70;;;24.60;44.30;;;;;;5053811;28;20661;-71
2022/08/13 06:51:26;;;;;;;4.78;1.90;;;24.60;44.60;;;;;;5054261;28;20175;-71
2022/08/13 06:53:54;;;;;;;2.47;1.60;;;24.50;44.70;;;;;;5052643;28;20175;-70
2022/08/13 06:56:20;;;;;;;2.00;1.80;;;24.50;44.80;;;;;;5054320;28;20183;-70
2022/08/13 06:58:49;;;;;;;1.90;1.80;;;24.50;44.90;;;;;;5053743;28;20629;-70
2022/08/13 07:01:22;;;;;;;3.35;2.05;;;24.50;45.10;;;;;;5053706;28;20228;-72
2022/08/13 07:03:48;;;;;;;3.45;1.70;;;24.50;45.10;;;;;;5053537;28;20633;-70
2022/08/13 07:06:17;;;;;;;3.60;1.75;;;24.50;45.20;;;;;;5053385;28;20178;-70
2022/08/13 07:08:43;;;;;;;3.92;1.67;;;24.50;45.20;;;;;;5053955;28;20217;-69
2022/08/13 07:11:24;;;;;;;2.30;1.83;;;24.50;45.20;;;;;;5054279;28;20182;-66
2022/08/13 07:13:52;;;;;;;2.75;1.88;;;24.50;45.10;;;;;;5053533;28;20258;-73
2022/08/13 07:16:19;;;;;;;1.70;1.60;;;24.50;45.30;;;;;;5053701;28;20656;-70
2022/08/13 07:18:46;;;;;;;3.75;1.73;;;24.50;45.50;;;;;;5053586;28;20651;-72
2022/08/13 07:21:13;;;;;;;5.00;2.30;;;24.60;45.70;;;;;;5053269;28;20178;-71
2022/08/13 07:23:39;;;;;;;3.42;2.05;;;24.60;45.30;;;;;;5053869;28;20186;-73
2022/08/13 07:26:05;;;;;;;3.55;2.08;;;24.60;45.40;;;;;;5053602;28;20181;-72
2022/08/13 07:28:31;;;;;;;2.95;2.05;;;24.60;45.40;;;;;;5052734;28;20218;-73
2022/08/13 07:30:57;;;;;;;3.45;1.90;;;24.70;45.50;;;;;;5053439;28;20183;-72
2022/08/13 07:33:22;;;;;;;2.95;1.63;;;24.70;45.60;;;;;;5053436;28;20258;-71
2022/08/13 07:35:48;;;;;;;2.33;1.70;;;24.70;45.70;;;;;;5052568;28;20236;-72
2022/08/13 07:38:15;;;;;;;3.10;1.75;;;24.70;45.70;;;;;;5053505;28;20684;-71
2022/08/13 07:40:40;;;;;;;3.10;2.13;;;24.70;45.80;;;;;;5036017;28;20181;-71
2022/08/13 07:43:06;;;;;;;4.10;1.92;;;24.70;45.90;;;;;;5034882;28;20261;-71
2022/08/13 07:45:31;;;;;;;3.80;2.03;;;24.80;46.00;;;;;;5035586;28;20167;-71
2022/08/13 07:47:57;;;;;;;4.28;2.03;;;24.80;46.00;;;;;;5052917;28;20203;-65
2022/08/13 07:50:23;;;;;;;2.97;1.88;;;24.80;46.10;;;;;;5037992;28;20485;-72
2022/08/13 07:52:55;;;;;;;2.20;1.55;;;24.80;46.80;;;;;;5055868;28;20621;-70
2022/08/13 07:55:30;;;;;;;2.75;1.60;;;24.80;46.10;;;;;;5052739;28;20179;-69
2022/08/13 07:57:56;;;;;;;2.30;1.80;;;24.80;46.10;;;;;;5036431;28;20181;-68
2022/08/13 08:00:24;;;;;;;3.45;2.00;;;24.80;46.10;;;;;;5052925;28;20262;-68
2022/08/13 08:02:57;;;;;;;3.88;1.73;;;24.80;46.30;;;;;;5052556;28;20175;-71
2022/08/13 08:05:24;;;;;;;5.05;1.98;;;24.80;46.40;;;;;;5053043;28;20576;-71
2022/08/13 08:07:51;;;;;;;4.18;1.92;;;24.90;46.60;;;;;;5052784;28;20211;-70
2022/08/13 08:10:18;;;;;;;6.18;1.90;;;24.90;46.50;;;;;;5052004;28;20633;-68
2022/08/13 08:12:44;;;;;;;4.90;1.98;;;24.90;46.60;;;;;;5052707;28;20541;-68
2022/08/13 08:15:11;;;;;;;2.05;1.85;;;24.90;46.60;;;;;;5052812;28;20184;-71
2022/08/13 08:17:36;;;;;;;5.55;1.85;;;24.90;46.70;;;;;;5051941;28;20279;-71
2022/08/13 08:20:04;;;;;;;4.13;1.90;;;24.90;46.70;;;;;;5052750;28;20258;-73
2022/08/13 08:22:30;;;;;;;5.88;2.40;;;24.90;46.80;;;;;;5052814;28;20190;-74
2022/08/13 08:24:56;;;;;;;11.63;2.40;;;25.00;47.10;;;;;;5034183;28;20177;-69
2022/08/13 08:27:23;;;;;;;5.20;2.03;;;25.00;47.30;;;;;;5052515;28;20231;-71
2022/08/13 08:29:49;;;;;;;10.82;2.53;;;25.00;47.10;;;;;;5052632;28;20174;-69
2022/08/13 08:32:15;;;;;;;6.03;2.25;;;25.00;47.20;;;;;;5052006;28;20175;-69
2022/08/13 08:34:44;;;;;;;7.65;2.63;;;25.00;47.10;;;;;;5052745;28;20205;-69
2022/08/13 08:43:00;;;;;;;7.63;1.98;;;25.00;47.10;;;;;;5037498;28;20179;-69
2022/08/13 08:45:26;;;;;;;4.93;1.90;;;25.00;47.00;;;;;;5051854;28;20171;-71
2022/08/13 08:47:52;;;;;;;2.88;2.00;;;25.10;47.10;;;;;;5052333;28;20545;-71
2022/08/13 08:50:19;;;;;;;5.63;2.25;;;25.10;47.30;;;;;;5052253;28;20175;-67
2022/08/13 08:55:35;;;;;;;4.72;2.08;;;25.10;47.60;;;;;;5052530;28;20181;-67
2022/08/13 08:58:02;;;;;;;5.28;2.00;;;25.10;47.70;;;;;;5035506;28;20421;-70
2022/08/13 09:00:28;;;;;;;8.15;1.98;;;25.10;47.80;;;;;;5034170;28;20212;-70
2022/08/13 09:02:56;;;;;;;5.05;2.40;;;25.20;47.80;;;;;;5052139;28;20271;-72
2022/08/13 09:05:22;;;;;;;6.75;1.95;;;25.10;47.80;;;;;;5035063;28;20199;-70
2022/08/13 09:07:49;;;;;;;5.60;2.10;;;25.20;47.70;;;;;;5051929;28;20214;-69
2022/08/13 09:10:15;;;;;;;7.68;2.20;;;25.20;47.80;;;;;;5052324;28;20198;-69
2022/08/13 09:12:42;;;;;;;3.50;1.90;;;25.20;47.80;;;;;;5051027;28;20212;-70
2022/08/13 09:15:10;;;;;;;3.33;1.50;;;25.10;47.80;;;;;;5051567;28;20641;-68
2022/08/13 09:17:36;;;;;;;3.63;1.90;;;25.20;48.00;;;;;;5036255;28;20248;-70
2022/08/13 09:20:02;;;;;;;9.02;2.13;;;25.20;47.80;;;;;;5037855;28;20183;-71
2022/08/13 09:22:28;;;;;;;3.20;2.38;;;25.20;48.00;;;;;;5055902;28;20179;-70
2022/08/13 09:24:59;;;;;;;8.05;1.98;;;25.20;48.00;;;;;;5055829;28;20507;-69
2022/08/13 09:27:26;;;;;;;4.78;1.65;;;25.20;47.90;;;;;;5055221;28;20218;-70
2022/08/13 09:29:51;;;;;;;3.92;1.80;;;25.20;47.90;;;;;;5055899;28;20175;-70
2022/08/13 09:32:17;;;;;;;4.03;2.08;;;25.20;48.00;;;;;;5056095;28;20695;-72
2022/08/13 09:34:45;;;;;;;4.45;1.90;;;25.30;48.10;;;;;;5055758;28;20191;-72
2022/08/13 09:37:12;;;;;;;3.97;1.70;;;25.30;48.00;;;;;;5055878;28;20225;-72
2022/08/13 09:39:49;;;;;;;4.53;1.92;;;25.30;48.00;;;;;;5055698;28;20198;-72
2022/08/13 09:42:26;;;;;;;8.45;2.10;;;25.30;48.00;;;;;;5054824;28;20655;-71
2022/08/13 09:44:56;;;;;;;4.07;1.95;;;25.30;48.00;;;;;;5055678;28;20257;-72
2022/08/13 09:47:22;;;;;;;5.63;1.73;;;25.30;48.00;;;;;;5055855;28;20203;-73
2022/08/13 09:49:48;;;;;;;6.70;2.28;;;25.30;48.00;;;;;;5054780;28;20179;-71
2022/08/13 09:52:15;;;;;;;2.75;1.73;;;25.30;48.00;;;;;;5055617;28;20202;-70
2022/08/13 09:54:41;;;;;;;2.90;1.73;;;25.30;48.00;;;;;;5054932;28;20235;-70
2022/08/13 09:57:07;;;;;;;5.20;1.88;;;25.30;48.00;;;;;;5054226;28;20184;-70
2022/08/13 09:59:33;;;;;;;3.78;2.00;;;25.40;48.00;;;;;;5055397;28;20181;-72
2022/08/13 10:02:09;;;;;;;1.92;1.73;;;25.30;48.00;;;;;;5054858;28;20450;-72
2022/08/13 10:04:37;;;;;;;3.22;1.42;;;25.40;48.10;;;;;;5054970;28;20692;-71
2022/08/13 10:07:02;;;;;;;6.65;1.70;;;25.40;48.00;;;;;;5054918;28;20176;-70
2022/08/13 10:09:28;;;;;;;5.28;1.70;;;25.40;48.00;;;;;;5054328;28;20634;-69
2022/08/13 10:11:54;;;;;;;1.50;1.40;;;25.40;48.10;;;;;;5055723;28;20171;-71
2022/08/13 10:14:19;;;;;;;4.28;1.90;;;25.40;48.20;;;;;;5054980;28;20633;-72
2022/08/13 10:16:45;;;;;;;4.20;1.85;;;25.40;48.20;;;;;;5054135;28;20227;-73
2022/08/13 10:19:11;;;;;;;4.55;1.80;;;25.40;48.20;;;;;;5055079;28;20186;-72
2022/08/13 10:21:37;;;;;;;1.90;1.58;;;25.40;48.50;;;;;;5055139;28;20309;-71
2022/08/13 10:24:04;;;;;;;1.95;1.73;;;25.40;48.50;;;;;;5053993;28;20186;-73
2022/08/13 10:26:29;;;;;;;2.67;1.95;;;25.50;48.70;;;;;;5054976;28;20175;-72
2022/08/13 10:28:55;;;;;;;1.92;1.70;;;25.50;48.80;;;;;;5053765;28;20211;-71
2022/08/13 10:31:21;;;;;;;4.07;1.85;;;25.50;49.00;;;;;;5053947;28;20172;-70
2022/08/13 10:33:47;;;;;;;2.47;1.60;;;25.60;49.10;;;;;;5054493;28;20179;-72
2022/08/13 10:36:13;;;;;;;5.90;1.77;;;25.50;49.00;;;;;;5054817;28;20246;-72
2022/08/13 10:38:39;;;;;;;3.58;1.45;;;25.60;49.70;;;;;;5053782;28;20541;-73
2022/08/13 10:41:07;;;;;;;2.30;1.63;;;25.60;49.10;;;;;;5054572;28;20179;-72
2022/08/13 10:43:39;;;;;;;2.75;1.70;;;25.60;49.10;;;;;;5054390;28;20175;-72
2022/08/13 10:46:06;;;;;;;3.08;1.83;;;25.60;49.20;;;;;;5053781;28;20214;-71
2022/08/13 10:48:31;;;;;;;3.78;1.83;;;25.60;49.20;;;;;;5054374;28;20210;-70
2022/08/13 10:50:58;;;;;;;3.53;1.80;;;25.60;49.20;;;;;;5053644;28;20641;-68
2022/08/13 10:56:09;;;;;;;2.95;1.70;;;25.60;49.10;;;;;;5054281;28;20230;-68
2022/08/13 10:58:35;;;;;;;3.10;1.88;;;25.60;49.20;;;;;;5053705;28;20241;-70
2022/08/13 11:01:03;;;;;;;2.78;1.50;;;25.70;49.30;;;;;;5054010;28;20354;-72
2022/08/13 11:03:33;;;;;;;3.08;1.75;;;25.70;49.30;;;;;;5054081;28;20183;-69
2022/08/13 11:05:59;;;;;;;3.45;1.55;;;25.70;49.40;;;;;;5052910;28;20622;-68
2022/08/13 11:08:34;;;;;;;3.42;1.73;;;25.70;49.40;;;;;;5053894;28;20214;-69
2022/08/13 11:10:59;;;;;;;2.95;1.75;;;25.70;49.40;;;;;;5054124;28;20193;-68
2022/08/13 11:13:25;;;;;;;2.33;1.60;;;25.70;49.50;;;;;;5053190;28;20679;-70
2022/08/13 11:15:51;;;;;;;1.73;1.63;;;25.70;49.40;;;;;;5053972;28;20179;-70
2022/08/13 11:18:16;;;;;;;3.10;1.80;;;25.80;49.50;;;;;;5053693;28;20238;-70
2022/08/13 11:21:03;;;;;;;4.93;1.75;;;25.80;49.40;;;;;;5035435;28;20179;-71
2022/08/13 11:23:30;;;;;;;1.48;1.38;;;25.80;49.50;;;;;;5053322;28;20183;-68
2022/08/13 11:25:56;;;;;;;3.60;1.80;;;25.80;49.40;;;;;;5053489;28;20637;-68
2022/08/13 11:28:22;;;;;;;2.88;1.70;;;25.80;49.40;;;;;;5052808;28;20269;-68
2022/08/13 11:30:48;;;;;;;1.92;1.70;;;25.80;49.40;;;;;;5053315;28;20175;-67
2022/08/13 11:33:13;;;;;;;5.78;1.80;;;25.80;49.30;;;;;;5053312;28;20229;-69
2022/08/13 11:35:41;;;;;;;4.50;1.98;;;25.80;49.20;;;;;;5053390;28;20163;-69
2022/08/13 11:38:08;;;;;;;3.05;1.60;;;25.90;49.20;;;;;;5053420;28;20198;-69
2022/08/13 11:40:34;;;;;;;2.17;1.63;;;25.90;49.20;;;;;;5052466;28;20172;-69
2022/08/13 11:43:00;;;;;;;3.35;1.55;;;25.90;49.20;;;;;;5052910;28;20186;-71
2022/08/13 11:45:26;;;;;;;2.08;1.65;;;25.90;49.10;;;;;;5053153;28;20171;-71
2022/08/13 11:47:51;;;;;;;2.75;1.85;;;26.00;49.10;;;;;;5052514;28;20298;-67
2022/08/13 11:50:17;;;;;;;2.58;1.70;;;26.00;49.10;;;;;;5053470;28;20266;-77
2022/08/13 11:52:42;;;;;;;2.20;1.60;;;26.00;49.00;;;;;;5053219;28;20199;-67
2022/08/13 11:55:08;;;;;;;5.88;1.85;;;26.00;49.00;;;;;;5052207;28;20266;-69
2022/08/13 11:57:34;;;;;;;2.50;1.27;;;26.00;49.00;;;;;;5053103;28;20531;-69
2022/08/13 11:59:59;;;;;;;3.15;1.50;;;26.00;48.90;;;;;;5053046;28;20175;-69
2022/08/13 12:02:25;;;;;;;5.05;1.90;;;26.00;48.90;;;;;;5052230;28;20171;-71
2022/08/13 12:04:53;;;;;;;2.88;1.50;;;26.10;48.90;;;;;;5052994;28;20182;-69
2022/08/13 12:07:19;;;;;;;2.80;1.58;;;26.10;48.90;;;;;;5052712;28;20170;-68
2022/08/13 12:09:45;;;;;;;2.63;1.63;;;26.10;48.80;;;;;;5052120;28;20178;-68
2022/08/13 12:12:10;;;;;;;3.83;1.52;;;26.10;48.80;;;;;;5052770;28;20202;-68
2022/08/13 12:14:36;;;;;;;3.95;1.48;;;26.20;48.80;;;;;;5052816;28;20722;-69
2022/08/13 12:17:01;;;;;;;3.25;1.50;;;26.20;48.90;;;;;;5052068;28;20227;-70
2022/08/13 12:19:27;;;;;;;3.28;1.60;;;26.20;48.80;;;;;;5052763;28;20629;-69
2022/08/13 12:21:52;;;;;;;3.33;1.40;;;26.20;48.80;;;;;;5052619;28;20187;-69
2022/08/13 12:24:18;;;;;;;2.38;1.40;;;26.20;48.80;;;;;;5052137;28;20167;-68
2022/08/13 12:26:43;;;;;;;2.45;1.27;;;26.30;48.80;;;;;;5052641;28;20183;-68
2022/08/13 12:29:09;;;;;;;2.92;1.40;;;26.30;48.70;;;;;;5052210;28;20248;-68
2022/08/13 12:31:34;;;;;;;1.40;1.27;;;26.30;48.70;;;;;;5051513;28;20179;-68
2022/08/13 12:34:00;;;;;;;2.00;1.33;;;26.30;48.60;;;;;;5052027;28;20664;-69
2022/08/13 12:36:26;;;;;;;1.75;1.38;;;26.40;48.70;;;;;;5051649;28;20179;-69
2022/08/13 12:38:52;;;;;;;2.33;1.38;;;26.40;48.60;;;;;;5052147;28;20191;-71
2022/08/13 12:41:17;;;;;;;2.67;1.60;;;26.40;48.60;;;;;;5052562;28;20171;-70
2022/08/13 12:43:43;;;;;;;1.60;1.50;;;26.50;48.50;;;;;;5051821;28;20209;-70
2022/08/13 12:46:11;;;;;;;2.25;1.55;;;26.50;48.50;;;;;;5052735;28;20228;-69
2022/08/13 12:48:36;;;;;;;1.30;1.20;;;26.50;48.50;;;;;;5052457;28;20217;-69
2022/08/13 12:51:02;;;;;;;2.17;1.25;;;26.50;48.50;;;;;;5051822;28;20175;-68
2022/08/13 12:53:27;;;;;;;2.03;1.30;;;26.60;48.40;;;;;;5055877;28;20249;-68
2022/08/13 12:55:53;;;;;;;1.50;1.27;;;26.60;48.50;;;;;;5056615;28;20261;-68
2022/08/13 12:58:23;;;;;;;1.45;1.35;;;26.60;48.40;;;;;;5055331;28;20174;-69
2022/08/13 13:00:50;;;;;;;1.98;1.40;;;26.60;48.40;;;;;;5056575;28;20232;-70
2022/08/13 13:03:16;;;;;;;2.28;1.20;;;26.60;48.40;;;;;;5056477;28;20175;-70
2022/08/13 13:05:43;;;;;;;1.33;1.00;;;26.70;48.40;;;;;;5055794;28;20539;-68
2022/08/13 13:08:16;;;;;;;1.55;1.40;;;26.70;48.40;;;;;;5056191;28;20680;-68
2022/08/13 13:10:42;;;;;;;1.23;1.13;;;26.70;48.40;;;;;;5055454;28;20171;-72
2022/08/13 13:13:08;;;;;;;1.73;1.42;;;26.70;48.40;;;;;;5054030;28;20233;-68